Time;durP1;ratioP1;P1;durP2;ratioP2;P2;SDS_P1;SDS_P2;PMS_P1;PMS_P2;Temp;Humidity;BMP_temperature;BMP_pressure;BME280_temperature;BME280_humidity;BME280_pressure;Samples;Min_cycle;Max_cycle;Signal;HPM_P1;HPM_P2
2023/08/14 00:01:23;;;;;;;7.20;5.80;;;;;;;19.23;100.00;98194.16;106462;1279;25623;-77
2023/08/14 00:03:51;;;;;;;9.80;5.10;;;;;;;19.21;100.00;98191.29;106345;1279;22524;-77
2023/08/14 00:06:20;;;;;;;11.00;5.20;;;;;;;19.21;100.00;98192.86;106505;1279;22612;-77
2023/08/14 00:08:48;;;;;;;6.70;4.80;;;;;;;19.19;100.00;98192.03;106432;1279;22530;-77
2023/08/14 00:11:16;;;;;;;7.00;4.80;;;;;;;19.17;100.00;98187.60;106687;1267;22880;-79
2023/08/14 00:13:55;;;;;;;8.00;5.20;;;;;;;19.17;100.00;98186.03;106447;1279;22645;-77
2023/08/14 00:16:24;;;;;;;6.10;4.70;;;;;;;19.15;100.00;98183.71;106716;1279;22558;-77
2023/08/14 00:18:53;;;;;;;6.30;4.70;;;;;;;19.08;100.00;98182.48;106675;1279;22551;-77
2023/08/14 00:21:23;;;;;;;8.40;5.30;;;;;;;19.00;100.00;98184.94;106516;1279;23142;-77
2023/08/14 00:23:51;;;;;;;6.10;4.90;;;;;;;18.94;100.00;98183.29;106507;1279;24212;-77
2023/08/14 00:26:19;;;;;;;6.40;5.30;;;;;;;18.90;100.00;98184.58;106434;1279;25301;-77
2023/08/14 00:28:47;;;;;;;5.60;4.80;;;;;;;18.86;100.00;98187.96;106262;1279;22524;-77
2023/08/14 00:31:16;;;;;;;7.30;5.50;;;;;;;18.80;100.00;98193.88;106378;1279;22551;-77
2023/08/14 00:33:45;;;;;;;8.30;5.30;;;;;;;18.74;100.00;98195.27;106411;1279;22533;-77
2023/08/14 00:36:13;;;;;;;7.30;5.00;;;;;;;18.68;100.00;98195.27;106475;1272;22534;-77
2023/08/14 00:38:41;;;;;;;8.30;5.10;;;;;;;18.60;100.00;98201.30;106405;1279;22531;-77
2023/08/14 00:41:10;;;;;;;10.00;5.30;;;;;;;18.53;100.00;98200.08;106436;1279;22525;-77
2023/08/14 00:43:38;;;;;;;7.30;5.10;;;;;;;18.50;100.00;98208.31;106434;1280;24359;-78
2023/08/14 00:46:07;;;;;;;8.10;4.80;;;;;;;18.47;100.00;98212.51;106357;1280;22531;-78
2023/08/14 00:48:35;;;;;;;6.90;4.70;;;;;;;18.42;100.00;98217.27;106349;1279;25336;-78
2023/08/14 00:51:04;;;;;;;7.30;4.70;;;;;;;18.38;100.00;98221.59;106521;1279;26017;-78
2023/08/14 00:53:32;;;;;;;10.20;5.30;;;;;;;18.32;100.00;98224.36;106455;1279;24294;-77
2023/08/14 00:56:02;;;;;;;8.00;5.50;;;;;;;18.25;100.00;98228.21;106419;1279;24378;-77
2023/08/14 00:58:30;;;;;;;7.70;5.30;;;;;;;18.21;100.00;98230.55;106633;1279;22622;-77
2023/08/14 01:00:59;;;;;;;8.10;4.90;;;;;;;18.16;100.00;98233.13;106639;1279;24374;-78
2023/08/14 01:03:28;;;;;;;10.20;5.20;;;;;;;18.12;100.00;98232.86;106581;1278;22534;-77
2023/08/14 01:05:57;;;;;;;8.20;5.10;;;;;;;18.09;100.00;98234.61;106375;1279;24238;-78
2023/08/14 01:08:25;;;;;;;6.00;4.60;;;;;;;18.06;100.00;98239.20;106626;1279;23928;-78
2023/08/14 01:11:08;;;;;;;6.70;4.80;;;;;;;18.02;100.00;98241.01;106634;1280;25353;-77
2023/08/14 01:14:09;;;;;;;10.30;5.50;;;;;;;17.99;100.00;98245.50;106411;1279;24248;-77
2023/08/14 01:16:41;;;;;;;8.90;5.00;;;;;;;17.98;100.00;98248.21;106461;1279;22643;-77
2023/08/14 01:19:20;;;;;;;6.90;5.20;;;;;;;18.00;100.00;98250.98;106410;1279;22654;-77
2023/08/14 01:22:40;;;;;;;5.60;4.70;;;;;;;18.01;100.00;98251.26;106581;1279;22996;-77
2023/08/14 01:25:30;;;;;;;5.60;4.80;;;;;;;17.99;100.00;98245.44;106683;1279;25536;-77
2023/08/14 01:28:00;;;;;;;6.00;4.60;;;;;;;17.99;100.00;98242.02;106518;1279;25441;-77
2023/08/14 01:30:28;;;;;;;8.70;4.80;;;;;;;18.04;100.00;98242.64;106455;1279;22642;-77
2023/08/14 01:32:57;;;;;;;10.00;5.50;;;;;;;18.03;100.00;98241.90;106364;1279;24259;-77
2023/08/14 01:35:28;;;;;;;9.70;5.30;;;;;;;18.00;100.00;98238.83;106403;1279;25461;-77
2023/08/14 01:38:11;;;;;;;6.80;5.10;;;;;;;17.98;100.00;98236.45;106397;1279;25335;-77
2023/08/14 01:40:50;;;;;;;8.50;5.70;;;;;;;17.95;100.00;98239.23;106451;1279;22650;-78
2023/08/14 01:43:30;;;;;;;7.70;5.40;;;;;;;17.98;100.00;98240.16;106735;1279;24238;-77
2023/08/14 01:45:58;;;;;;;6.50;5.40;;;;;;;18.01;100.00;98244.24;106289;1279;23162;-77
2023/08/14 01:48:28;;;;;;;6.40;5.00;;;;;;;18.00;100.00;98247.77;106423;1279;22528;-77
2023/08/14 01:50:56;;;;;;;6.80;5.30;;;;;;;17.97;100.00;98244.64;106405;1279;22534;-77
2023/08/14 01:53:25;;;;;;;7.10;4.90;;;;;;;17.97;100.00;98246.77;106393;1279;25406;-77
2023/08/14 01:55:53;;;;;;;6.80;4.60;;;;;;;18.03;100.00;98242.99;106419;1279;25806;-77
2023/08/14 01:58:21;;;;;;;8.60;5.00;;;;;;;18.10;100.00;98243.05;106325;1279;25333;-78
2023/08/14 02:00:49;;;;;;;7.90;4.90;;;;;;;18.14;100.00;98244.55;106613;1279;22681;-78
2023/08/14 02:03:17;;;;;;;7.20;4.80;;;;;;;18.16;100.00;98246.84;106635;1279;22556;-77
2023/08/14 02:05:45;;;;;;;6.30;5.20;;;;;;;18.07;100.00;98247.59;106361;1279;23265;-77
2023/08/14 02:08:13;;;;;;;7.80;5.00;;;;;;;17.98;100.00;98248.34;106433;1279;22625;-77
2023/08/14 02:10:41;;;;;;;7.10;5.10;;;;;;;17.85;100.00;98247.33;106434;1279;25598;-77
2023/08/14 02:13:10;;;;;;;7.80;4.80;;;;;;;17.77;100.00;98247.95;106419;1279;22647;-77
2023/08/14 02:15:38;;;;;;;4.90;4.30;;;;;;;17.68;100.00;98250.75;106547;1279;22745;-78
2023/08/14 02:18:06;;;;;;;5.90;4.90;;;;;;;17.61;100.00;98255.52;106555;1279;24238;-78
2023/08/14 02:20:34;;;;;;;6.30;4.50;;;;;;;17.56;100.00;98255.95;106322;1279;27736;-77
2023/08/14 02:23:02;;;;;;;7.60;4.50;;;;;;;17.53;100.00;98252.39;106402;1279;22658;-78
2023/08/14 02:25:31;;;;;;;5.80;4.90;;;;;;;17.49;100.00;98248.55;106338;1279;24376;-77
2023/08/14 02:27:59;;;;;;;6.20;4.20;;;;;;;17.47;100.00;98248.68;106334;1279;22527;-77
2023/08/14 02:30:27;;;;;;;7.50;4.80;;;;;;;17.45;100.00;98246.44;106439;1279;22650;-77
2023/08/14 02:32:56;;;;;;;8.60;4.40;;;;;;;17.41;100.00;98250.64;106398;1279;24343;-77
2023/08/14 02:35:24;;;;;;;6.40;4.90;;;;;;;17.40;100.00;98246.80;106405;1279;22657;-77
2023/08/14 02:37:55;;;;;;;8.10;4.90;;;;;;;17.46;100.00;98245.68;106459;1279;24294;-77
2023/08/14 02:40:23;;;;;;;7.50;4.80;;;;;;;17.46;100.00;98244.77;106411;1280;25469;-77
2023/08/14 02:42:51;;;;;;;7.00;4.30;;;;;;;17.46;100.00;98243.59;106387;1279;24259;-77
2023/08/14 02:45:19;;;;;;;6.10;5.10;;;;;;;17.45;100.00;98243.40;106334;1279;24251;-78
2023/08/14 02:47:47;;;;;;;6.30;4.90;;;;;;;17.40;100.00;98244.02;106596;1279;22629;-77
2023/08/14 02:50:15;;;;;;;7.60;4.90;;;;;;;17.36;100.00;98253.12;106561;1279;25322;-77
2023/08/14 02:52:43;;;;;;;7.70;4.90;;;;;;;17.33;100.00;98249.89;106376;1280;25400;-77
2023/08/14 02:55:11;;;;;;;5.80;5.10;;;;;;;17.33;100.00;98254.40;106354;1279;22531;-77
2023/08/14 02:57:39;;;;;;;8.20;4.90;;;;;;;17.37;100.00;98254.48;106366;1279;24220;-77
2023/08/14 03:00:09;;;;;;;7.60;4.70;;;;;;;17.42;100.00;98253.48;106406;1279;22607;-79
2023/08/14 03:02:37;;;;;;;6.30;4.80;;;;;;;17.45;100.00;98257.36;106742;1279;22537;-76
2023/08/14 03:05:06;;;;;;;7.50;5.00;;;;;;;17.48;100.00;98259.41;106396;1279;25444;-77
2023/08/14 03:07:34;;;;;;;5.30;4.70;;;;;;;17.52;100.00;98263.26;106473;1279;25304;-78
2023/08/14 03:10:02;;;;;;;6.90;4.80;;;;;;;17.51;100.00;98260.52;106430;1279;22542;-77
2023/08/14 03:12:30;;;;;;;6.70;4.60;;;;;;;17.49;100.00;98261.67;106585;1279;22527;-77
2023/08/14 03:14:58;;;;;;;6.00;4.60;;;;;;;17.51;100.00;98262.83;106581;1279;22805;-77
2023/08/14 03:17:26;;;;;;;5.70;4.60;;;;;;;17.49;100.00;98262.00;106605;1276;23938;-77
2023/08/14 03:19:54;;;;;;;12.50;5.20;;;;;;;17.47;100.00;98264.80;106484;1279;25399;-77
2023/08/14 03:22:22;;;;;;;5.70;4.90;;;;;;;17.46;100.00;98269.14;106605;1279;24580;-77
2023/08/14 03:24:50;;;;;;;7.30;4.80;;;;;;;17.44;100.00;98269.84;106572;1279;22661;-77
2023/08/14 03:27:18;;;;;;;5.80;5.20;;;;;;;17.41;100.00;98265.00;106512;1279;25295;-77
2023/08/14 03:29:46;;;;;;;8.00;4.90;;;;;;;17.42;100.00;98265.63;106349;1279;24453;-77
2023/08/14 03:32:14;;;;;;;6.60;4.80;;;;;;;17.45;100.00;98264.64;106405;1279;25358;-77
2023/08/14 03:34:43;;;;;;;8.20;4.80;;;;;;;17.48;100.00;98267.11;106374;1279;22514;-77
2023/08/14 03:37:11;;;;;;;6.10;5.50;;;;;;;17.49;100.00;98272.57;106559;1279;25284;-77
2023/08/14 03:39:40;;;;;;;8.80;4.70;;;;;;;17.50;100.00;98275.58;106414;1279;22544;-77
2023/08/14 03:42:09;;;;;;;6.40;4.50;;;;;;;17.53;100.00;98273.73;106449;1279;25435;-78
2023/08/14 03:44:37;;;;;;;7.10;4.50;;;;;;;17.58;100.00;98277.08;106619;1279;22526;-78
2023/08/14 03:47:05;;;;;;;5.60;4.50;;;;;;;17.60;100.00;98279.90;106661;1279;22600;-77
2023/08/14 03:49:33;;;;;;;5.70;4.80;;;;;;;17.63;100.00;98284.30;106565;1279;24237;-78
2023/08/14 03:52:02;;;;;;;5.50;4.40;;;;;;;17.68;100.00;98287.49;106662;1279;22534;-77
2023/08/14 03:54:30;;;;;;;7.40;5.30;;;;;;;17.75;100.00;98287.59;106546;1279;22531;-77
2023/08/14 03:56:59;;;;;;;8.40;4.80;;;;;;;17.85;100.00;98287.71;106660;1267;22648;-77
2023/08/14 03:59:27;;;;;;;8.10;4.60;;;;;;;17.95;100.00;98284.16;106593;1266;22643;-77
2023/08/14 04:01:56;;;;;;;6.00;4.70;;;;;;;18.05;100.00;98286.21;106623;1279;22621;-78
2023/08/14 04:04:25;;;;;;;10.10;4.80;;;;;;;18.14;100.00;98289.41;106450;1279;22527;-78
2023/08/14 04:06:53;;;;;;;5.30;4.80;;;;;;;18.18;100.00;98292.17;106656;1279;25489;-78
2023/08/14 04:09:21;;;;;;;9.70;5.50;;;;;;;18.19;100.00;98289.02;106648;1279;24206;-77
2023/08/14 04:11:49;;;;;;;5.60;5.00;;;;;;;18.18;100.00;98291.25;106609;1279;22729;-77
2023/08/14 04:14:17;;;;;;;8.30;4.70;;;;;;;18.18;100.00;98290.71;106339;1279;25222;-77
2023/08/14 04:16:45;;;;;;;8.60;5.20;;;;;;;18.16;100.00;98286.81;106390;1279;24206;-78
2023/08/14 04:19:15;;;;;;;10.40;5.20;;;;;;;18.13;100.00;98287.80;106612;1279;24077;-78
2023/08/14 04:21:43;;;;;;;6.50;4.40;;;;;;;18.12;100.00;98286.14;106603;1279;24583;-78
2023/08/14 04:24:11;;;;;;;6.20;4.70;;;;;;;18.10;100.00;98285.23;106706;1279;25388;-78
2023/08/14 04:26:40;;;;;;;9.00;4.80;;;;;;;18.10;100.00;98284.28;106403;1279;23926;-78
2023/08/14 04:29:09;;;;;;;6.80;5.50;;;;;;;18.11;100.00;98283.85;106657;1259;22651;-78
2023/08/14 04:31:39;;;;;;;10.20;5.20;;;;;;;18.13;100.00;98284.63;106641;1279;22788;-78
2023/08/14 04:34:09;;;;;;;9.00;5.00;;;;;;;18.17;100.00;98286.00;106404;1259;22528;-76
2023/08/14 04:36:39;;;;;;;6.60;5.20;;;;;;;18.21;100.00;98287.20;106438;1279;23912;-76
2023/08/14 04:39:07;;;;;;;8.50;4.60;;;;;;;18.23;100.00;98284.94;106396;1263;22623;-76
2023/08/14 04:41:37;;;;;;;8.50;5.00;;;;;;;18.27;100.00;98287.33;106435;1272;22516;-77
2023/08/14 04:44:05;;;;;;;10.00;5.20;;;;;;;18.33;100.00;98285.48;106347;1269;22540;-77
2023/08/14 04:46:35;;;;;;;6.10;4.90;;;;;;;18.40;100.00;98282.86;106357;1279;24216;-76
2023/08/14 04:49:08;;;;;;;6.40;4.90;;;;;;;18.51;100.00;98290.69;106459;1279;22544;-76
2023/08/14 04:51:36;;;;;;;8.30;4.20;;;;;;;18.59;100.00;98294.06;106431;1279;25359;-79
2023/08/14 04:54:05;;;;;;;7.60;5.40;;;;;;;18.68;100.00;98300.12;106391;1279;22523;-77
2023/08/14 04:56:33;;;;;;;7.10;5.40;;;;;;;18.77;100.00;98297.90;106405;1279;22534;-77
2023/08/14 04:59:03;;;;;;;6.20;5.10;;;;;;;18.88;100.00;98302.22;106382;1279;23274;-77
2023/08/14 05:01:31;;;;;;;6.40;4.90;;;;;;;19.02;100.00;98306.54;106389;1279;22536;-77
2023/08/14 05:03:59;;;;;;;15.60;5.50;;;;;;;19.18;100.00;98305.68;106406;1279;22664;-77
2023/08/14 05:06:27;;;;;;;7.30;4.90;;;;;;;19.33;100.00;98306.90;106421;1279;24382;-77
2023/08/14 05:08:55;;;;;;;7.20;5.10;;;;;;;19.46;100.00;98310.19;106332;1279;22525;-77
2023/08/14 05:11:24;;;;;;;6.80;4.20;;;;;;;19.61;100.00;98305.27;106395;1279;22527;-77
2023/08/14 05:13:52;;;;;;;10.70;6.60;;;;;;;19.78;100.00;98306.40;106540;1256;26716;-79
2023/08/14 05:16:21;;;;;;;9.90;5.60;;;;;;;19.96;100.00;98304.23;106691;1279;22527;-78
2023/08/14 05:18:50;;;;;;;7.40;4.90;;;;;;;20.14;100.00;98300.31;106839;1279;22726;-78
2023/08/14 05:21:18;;;;;;;8.60;5.10;;;;;;;20.33;100.00;98301.95;106637;1279;23148;-78
2023/08/14 05:23:46;;;;;;;7.40;5.30;;;;;;;20.51;100.00;98301.23;106691;1279;22533;-78
2023/08/14 05:26:14;;;;;;;6.70;5.30;;;;;;;20.71;100.00;98297.59;106727;1279;25437;-79
2023/08/14 05:28:42;;;;;;;7.50;5.40;;;;;;;20.91;100.00;98295.91;106648;1279;25332;-79
2023/08/14 05:31:10;;;;;;;6.60;4.80;;;;;;;21.09;100.00;98290.92;106702;1279;26713;-79
2023/08/14 05:33:38;;;;;;;7.60;5.30;;;;;;;21.26;100.00;98290.80;106668;1279;25353;-78
2023/08/14 05:36:08;;;;;;;5.40;4.70;;;;;;;21.40;100.00;98292.99;106636;1272;22537;-78
2023/08/14 05:38:36;;;;;;;9.70;6.10;;;;;;;21.53;100.00;98300.08;106645;1279;22542;-78
2023/08/14 05:41:04;;;;;;;6.60;5.20;;;;;;;21.67;100.00;98296.66;106644;1279;22909;-77
2023/08/14 05:43:32;;;;;;;6.70;5.30;;;;;;;21.81;100.00;98300.38;106546;1279;22538;-79
2023/08/14 05:46:00;;;;;;;7.30;6.00;;;;;;;21.95;100.00;98295.84;106760;1279;22557;-79
2023/08/14 05:48:28;;;;;;;8.10;5.70;;;;;;;22.09;100.00;98295.96;106622;1279;22665;-77
2023/08/14 05:50:57;;;;;;;12.10;5.70;;;;;;;22.22;100.00;98295.18;106652;1279;22525;-78
2023/08/14 05:53:25;;;;;;;10.50;5.00;;;;;;;22.34;100.00;98297.98;106661;1279;22503;-77
2023/08/14 05:55:53;;;;;;;8.30;5.80;;;;;;;22.45;99.93;98299.48;106384;1261;24263;-77
2023/08/14 05:58:21;;;;;;;7.40;5.30;;;;;;;22.55;98.87;98302.14;106600;1279;22521;-77
2023/08/14 06:00:49;;;;;;;9.00;5.10;;;;;;;22.63;96.53;98299.55;106675;1279;25217;-77
2023/08/14 06:03:18;;;;;;;7.50;4.60;;;;;;;22.76;96.68;98303.81;106660;1279;22535;-78
2023/08/14 06:06:00;;;;;;;6.80;4.90;;;;;;;22.88;95.23;98307.29;106649;1279;22650;-78
2023/08/14 06:08:28;;;;;;;6.50;4.80;;;;;;;22.99;94.80;98309.36;106671;1279;23906;-77
2023/08/14 06:10:56;;;;;;;6.90;4.70;;;;;;;23.10;93.75;98312.89;106613;1279;22658;-78
2023/08/14 06:13:24;;;;;;;7.60;4.90;;;;;;;23.22;93.30;98312.58;106604;1279;22668;-78
2023/08/14 06:15:52;;;;;;;5.70;4.10;;;;;;;23.32;91.52;98316.40;106442;1279;25387;-77
2023/08/14 06:18:20;;;;;;;7.30;4.20;;;;;;;23.41;89.83;98316.74;106627;1279;22640;-77
2023/08/14 06:20:50;;;;;;;4.60;3.80;;;;;;;23.48;88.15;98323.98;106663;1279;23139;-77
2023/08/14 06:23:19;;;;;;;6.00;4.40;;;;;;;23.59;88.41;98321.84;106726;1279;22561;-77
2023/08/14 06:25:47;;;;;;;5.90;4.20;;;;;;;23.69;86.90;98317.64;106673;1279;22568;-77
2023/08/14 06:28:15;;;;;;;5.10;4.30;;;;;;;23.79;88.44;98315.74;106672;1279;22708;-77
2023/08/14 06:30:43;;;;;;;6.10;4.60;;;;;;;23.92;88.57;98321.21;106669;1279;22672;-77
2023/08/14 06:33:12;;;;;;;10.20;6.80;;;;;;;24.02;86.59;98322.35;106653;1279;22637;-78
2023/08/14 06:35:42;;;;;;;14.90;8.30;;;;;;;24.11;86.07;98325.73;106651;1279;23926;-77
2023/08/14 06:38:10;;;;;;;18.50;9.40;;;;;;;24.20;85.38;98321.66;106609;1279;22551;-77
2023/08/14 06:40:40;;;;;;;13.40;7.90;;;;;;;24.31;85.34;98323.49;106639;1279;22683;-77
2023/08/14 06:43:11;;;;;;;8.90;4.80;;;;;;;24.43;84.49;98324.09;106714;1280;22540;-77
2023/08/14 06:45:39;;;;;;;6.70;4.40;;;;;;;24.53;84.07;98327.58;106628;1279;22649;-78
2023/08/14 06:48:07;;;;;;;7.00;4.40;;;;;;;24.67;83.29;98325.79;106612;1279;22833;-77
2023/08/14 06:50:35;;;;;;;7.60;4.40;;;;;;;24.85;82.90;98326.31;106599;1279;22720;-78
2023/08/14 06:53:03;;;;;;;6.00;4.50;;;;;;;25.00;82.59;98327.83;106605;1279;22625;-78
2023/08/14 06:55:31;;;;;;;12.30;4.80;;;;;;;25.15;81.18;98328.49;106593;1279;22552;-77
2023/08/14 06:57:59;;;;;;;7.80;4.20;;;;;;;25.29;81.22;98329.36;106398;1279;22548;-77
2023/08/14 07:00:28;;;;;;;6.00;4.10;;;;;;;25.48;80.60;98330.23;106640;1279;22529;-77
2023/08/14 07:02:56;;;;;;;7.90;3.70;;;;;;;25.66;79.49;98333.80;106618;1279;22763;-78
2023/08/14 07:05:24;;;;;;;9.20;4.10;;;;;;;25.84;78.81;98331.48;106369;1279;25466;-78
2023/08/14 07:07:53;;;;;;;27.20;4.30;;;;;;;25.99;76.29;98335.89;106635;1279;24270;-78
2023/08/14 07:10:20;;;;;;;6.30;4.10;;;;;;;26.15;77.54;98335.52;106637;1279;25403;-78
2023/08/14 07:12:48;;;;;;;5.50;3.60;;;;;;;26.35;76.98;98336.73;106672;1279;23929;-78
2023/08/14 07:15:17;;;;;;;6.40;3.60;;;;;;;26.55;75.73;98338.67;106683;1279;22659;-78
2023/08/14 07:17:45;;;;;;;38.80;6.00;;;;;;;26.64;75.28;98337.02;106706;1279;22830;-79
2023/08/14 07:20:13;;;;;;;15.00;4.00;;;;;;;26.69;74.08;98343.26;106566;1279;22607;-78
2023/08/14 07:22:41;;;;;;;10.10;3.70;;;;;;;26.71;71.50;98346.57;106704;1279;25307;-78
2023/08/14 07:25:09;;;;;;;12.10;3.80;;;;;;;26.70;71.87;98348.63;106701;1273;24203;-77
2023/08/14 07:27:37;;;;;;;5.50;3.60;;;;;;;26.69;71.26;98350.44;106392;1279;23903;-77
2023/08/14 07:30:06;;;;;;;7.90;3.90;;;;;;;26.70;71.29;98351.15;106434;1279;24383;-77
2023/08/14 07:32:34;;;;;;;10.90;3.90;;;;;;;26.71;71.44;98351.39;106436;1279;22793;-77
2023/08/14 07:35:03;;;;;;;5.60;3.80;;;;;;;26.76;71.00;98352.80;106433;1279;22632;-77
2023/08/14 07:37:31;;;;;;;5.30;3.60;;;;;;;26.73;69.67;98356.68;106428;1279;24422;-77
2023/08/14 07:39:59;;;;;;;7.10;3.80;;;;;;;26.72;70.24;98353.77;106434;1279;22516;-78
2023/08/14 07:42:27;;;;;;;5.80;3.50;;;;;;;26.72;69.84;98357.16;106678;1279;22583;-78
2023/08/14 07:44:55;;;;;;;6.40;3.70;;;;;;;26.68;65.85;98358.97;106701;1279;22785;-78
2023/08/14 07:47:24;;;;;;;5.60;3.50;;;;;;;26.67;67.12;98357.15;106412;1279;22600;-77
2023/08/14 07:49:52;;;;;;;8.90;3.90;;;;;;;26.85;67.79;98357.93;106505;1280;22535;-80
2023/08/14 07:52:20;;;;;;;7.10;3.40;;;;;;;27.05;67.15;98354.66;106689;1279;22797;-77
2023/08/14 07:54:48;;;;;;;7.30;3.70;;;;;;;27.20;65.26;98350.96;106677;1279;22633;-78
2023/08/14 07:57:16;;;;;;;8.20;3.80;;;;;;;27.20;65.18;98355.63;106680;1279;22632;-77
2023/08/14 07:59:44;;;;;;;11.10;3.70;;;;;;;27.30;65.65;98350.94;106660;1279;25398;-77
2023/08/14 08:02:12;;;;;;;15.00;4.90;;;;;;;27.43;65.81;98345.13;106649;1279;25244;-78
2023/08/14 08:04:40;;;;;;;5.50;3.70;;;;;;;27.57;63.88;98352.59;106613;1279;25353;-77
2023/08/14 08:07:08;;;;;;;6.00;3.30;;;;;;;27.56;62.37;98351.57;106590;1279;23933;-77
2023/08/14 08:09:41;;;;;;;7.30;3.60;;;;;;;27.56;63.28;98350.62;106658;1279;22577;-77
2023/08/14 08:12:09;;;;;;;5.30;3.60;;;;;;;27.60;62.87;98351.16;106584;1280;23235;-77
2023/08/14 08:14:37;;;;;;;5.80;3.40;;;;;;;27.67;61.55;98360.06;106399;1279;22518;-77
2023/08/14 08:17:05;;;;;;;7.70;3.40;;;;;;;27.69;60.13;98359.27;106427;1279;22534;-78
2023/08/14 08:19:33;;;;;;;9.50;3.80;;;;;;;27.64;60.52;98358.89;106417;1279;22737;-78
2023/08/14 08:22:01;;;;;;;7.70;3.50;;;;;;;27.57;59.83;98356.47;106450;1279;22612;-77
2023/08/14 08:24:29;;;;;;;6.50;3.30;;;;;;;27.44;59.74;98359.04;106443;1279;22715;-76
2023/08/14 08:26:57;;;;;;;5.80;3.20;;;;;;;27.37;59.56;98360.48;106319;1279;22915;-79
2023/08/14 08:29:25;;;;;;;4.40;3.00;;;;;;;27.34;59.24;98362.16;106485;1279;23895;-76
2023/08/14 08:31:53;;;;;;;7.70;3.10;;;;;;;27.34;59.33;98360.27;106452;1279;22659;-77
2023/08/14 08:34:21;;;;;;;5.50;3.00;;;;;;;27.32;59.17;98363.98;106493;1262;24082;-78
2023/08/14 08:36:50;;;;;;;5.30;3.00;;;;;;;27.29;58.75;98363.20;106643;1279;23404;-77
2023/08/14 08:39:18;;;;;;;6.40;3.40;;;;;;;27.30;58.74;98366.89;106428;1279;22533;-77
2023/08/14 08:41:48;;;;;;;9.80;3.30;;;;;;;27.40;58.31;98369.41;106667;1279;22652;-77
2023/08/14 08:44:25;;;;;;;3.60;2.90;;;;;;;27.49;57.58;98367.96;106701;1280;22580;-77
2023/08/14 08:46:58;;;;;;;7.00;3.20;;;;;;;27.60;56.57;98365.08;106359;1279;22646;-77
2023/08/14 08:49:28;;;;;;;6.50;3.50;;;;;;;27.70;56.13;98363.21;106427;1279;25406;-77
2023/08/14 08:51:57;;;;;;;8.10;3.70;;;;;;;27.70;56.36;98358.86;106715;1279;25400;-77
2023/08/14 08:54:27;;;;;;;11.10;3.40;;;;;;;27.71;56.90;98362.17;106707;1279;22999;-77
2023/08/14 08:56:59;;;;;;;5.30;3.30;;;;;;;27.76;56.47;98358.29;106652;1279;22791;-78
2023/08/14 08:59:27;;;;;;;7.50;3.30;;;;;;;27.81;56.42;98355.13;106655;1279;23925;-76
2023/08/14 09:01:55;;;;;;;5.50;3.00;;;;;;;27.85;55.92;98351.46;106417;1279;25350;-77
2023/08/14 09:04:26;;;;;;;14.70;4.30;;;;;;;27.90;55.59;98350.02;106384;1279;25294;-77
2023/08/14 09:06:55;;;;;;;8.10;3.20;;;;;;;27.93;54.99;98351.11;106485;1279;22622;-77
2023/08/14 09:09:23;;;;;;;6.40;3.20;;;;;;;28.01;54.85;98349.48;106648;1279;22606;-78
2023/08/14 09:11:51;;;;;;;4.80;3.30;;;;;;;28.13;55.21;98350.44;106667;1279;25360;-78
2023/08/14 09:14:22;;;;;;;4.90;3.20;;;;;;;28.23;54.66;98350.70;106652;1279;22539;-77
2023/08/14 09:16:53;;;;;;;4.00;2.80;;;;;;;28.33;53.83;98345.89;106686;1279;25536;-78
2023/08/14 09:19:21;;;;;;;8.00;3.40;;;;;;;28.42;54.20;98341.95;106709;1279;25333;-77
2023/08/14 09:21:49;;;;;;;4.70;3.30;;;;;;;28.52;53.60;98332.63;106670;1279;22745;-78
2023/08/14 09:24:18;;;;;;;8.50;3.90;;;;;;;28.62;53.55;98336.17;106411;1279;22643;-77
2023/08/14 09:26:47;;;;;;;5.20;3.30;;;;;;;28.76;54.02;98335.75;106445;1279;25346;-77
2023/08/14 09:29:16;;;;;;;5.50;3.10;;;;;;;28.85;53.83;98337.41;106422;1279;22654;-78
2023/08/14 09:31:51;;;;;;;8.40;3.50;;;;;;;28.95;53.20;98334.46;106663;1279;22633;-78
2023/08/14 09:34:20;;;;;;;4.60;2.90;;;;;;;28.97;51.86;98335.08;106599;1279;22652;-77
2023/08/14 09:36:48;;;;;;;8.30;3.40;;;;;;;29.03;52.10;98333.99;106649;1279;24233;-78
2023/08/14 09:39:18;;;;;;;6.50;2.90;;;;;;;29.10;51.72;98335.23;106582;1280;22594;-78
2023/08/14 09:41:49;;;;;;;5.20;2.60;;;;;;;29.14;50.46;98332.23;106569;1279;22539;-78
2023/08/14 09:44:22;;;;;;;4.30;2.80;;;;;;;29.12;50.13;98334.40;106655;1279;22610;-77
2023/08/14 09:46:51;;;;;;;5.50;2.60;;;;;;;29.17;49.17;98337.84;106649;1279;23903;-77
2023/08/14 09:49:20;;;;;;;5.90;2.50;;;;;;;29.09;47.32;98337.69;106743;1279;23413;-77
2023/08/14 09:51:58;;;;;;;5.30;2.80;;;;;;;29.04;47.86;98336.23;106630;1279;22524;-77
2023/08/14 09:54:31;;;;;;;6.60;2.50;;;;;;;28.99;47.75;98335.29;106434;1279;25517;-77
2023/08/14 09:56:59;;;;;;;;;;;;;;;28.99;46.67;98335.14;106462;1279;24377;-76
2023/08/14 09:59:28;;;;;;;6.00;2.60;;;;;;;28.99;46.50;98336.80;106427;1279;24225;-76
2023/08/14 10:01:59;;;;;;;5.00;2.90;;;;;;;29.04;46.01;98339.40;106402;1279;22544;-76
2023/08/14 10:04:30;;;;;;;12.90;2.70;;;;;;;29.12;46.65;98336.94;106486;1279;22725;-76
2023/08/14 10:06:59;;;;;;;5.70;2.60;;;;;;;29.27;47.22;98339.23;106484;1279;22538;-77
2023/08/14 10:09:30;;;;;;;7.60;2.70;;;;;;;29.46;46.58;98339.18;106401;1279;22537;-76
2023/08/14 10:12:06;;;;;;;4.10;2.80;;;;;;;29.61;45.86;98336.39;106462;1279;22649;-76
2023/08/14 10:14:37;;;;;;;4.10;2.50;;;;;;;29.70;45.62;98335.75;106423;1279;24234;-77
2023/08/14 10:17:12;;;;;;;12.10;3.30;;;;;;;29.80;45.46;98333.63;106468;1279;24328;-77
2023/08/14 10:19:41;;;;;;;4.40;2.70;;;;;;;29.85;44.63;98329.83;106340;1279;22541;-77
2023/08/14 10:22:10;;;;;;;5.60;2.50;;;;;;;29.95;43.96;98328.61;106445;1279;25391;-77
2023/08/14 10:24:39;;;;;;;4.70;2.70;;;;;;;30.05;44.73;98329.46;106387;1279;24350;-77
2023/08/14 10:27:08;;;;;;;6.10;2.30;;;;;;;30.24;44.61;98331.77;106433;1279;22549;-77
2023/08/14 10:29:37;;;;;;;4.20;2.50;;;;;;;30.26;41.79;98331.20;106410;1279;22950;-77
2023/08/14 10:32:06;;;;;;;5.00;2.10;;;;;;;30.22;42.11;98328.23;106483;1280;22546;-77
2023/08/14 10:34:34;;;;;;;6.90;2.50;;;;;;;30.25;42.11;98323.81;106625;1279;22651;-77
2023/08/14 10:37:03;;;;;;;5.60;2.90;;;;;;;30.31;42.24;98323.41;106625;1279;22702;-77
2023/08/14 10:39:35;;;;;;;3.90;2.40;;;;;;;30.33;41.34;98322.41;106647;1279;22721;-77
2023/08/14 10:42:08;;;;;;;3.80;2.60;;;;;;;30.28;40.66;98320.59;106634;1279;22530;-77
2023/08/14 10:44:36;;;;;;;7.00;2.70;;;;;;;30.22;40.78;98316.08;106614;1279;22760;-77
2023/08/14 10:47:06;;;;;;;5.90;2.50;;;;;;;30.28;40.93;98317.41;106661;1279;23232;-77
2023/08/14 10:49:49;;;;;;;3.60;2.60;;;;;;;30.45;41.12;98314.05;106664;1280;22539;-77
2023/08/14 10:52:21;;;;;;;3.90;2.60;;;;;;;30.62;41.58;98315.12;106638;1279;25306;-77
2023/08/14 10:54:51;;;;;;;5.20;2.50;;;;;;;30.76;41.43;98314.41;106639;1277;22693;-77
2023/08/14 10:57:27;;;;;;;5.70;2.60;;;;;;;30.88;41.01;98315.11;106665;1280;24374;-77
2023/08/14 10:59:57;;;;;;;4.50;2.50;;;;;;;30.99;40.64;98308.14;106660;1279;22548;-77
2023/08/14 11:02:25;;;;;;;4.60;2.50;;;;;;;31.07;39.77;98306.16;106751;1280;22475;-77
2023/08/14 11:04:57;;;;;;;5.30;2.20;;;;;;;31.21;39.85;98308.36;106667;1256;25508;-78
2023/08/14 11:07:28;;;;;;;5.60;2.50;;;;;;;31.38;39.57;98307.09;106637;1279;22790;-78
2023/08/14 11:10:00;;;;;;;5.80;2.70;;;;;;;31.44;38.57;98307.69;106754;1279;24225;-76
2023/08/14 11:12:32;;;;;;;5.30;2.90;;;;;;;31.48;39.05;98311.20;106639;1279;22538;-77
2023/08/14 11:15:00;;;;;;;4.40;2.20;;;;;;;31.52;38.97;98307.60;106660;1279;22746;-78
2023/08/14 11:17:29;;;;;;;3.00;2.30;;;;;;;31.54;39.17;98307.48;106674;1279;24241;-77
2023/08/14 11:19:56;;;;;;;3.30;2.30;;;;;;;31.64;39.61;98301.95;106653;1279;23908;-77
2023/08/14 11:22:24;;;;;;;6.10;2.80;;;;;;;31.79;39.91;98300.83;106652;1280;22565;-77
2023/08/14 11:24:52;;;;;;;8.10;2.50;;;;;;;31.92;38.97;98296.91;106637;1279;22538;-77
2023/08/14 11:27:23;;;;;;;7.80;2.80;;;;;;;31.93;38.25;98295.27;106621;1279;22673;-77
2023/08/14 11:29:51;;;;;;;3.70;2.40;;;;;;;31.83;38.50;98294.61;106710;1279;22645;-77